Terminal Aerodrome Forecast
Issued by NWS La Crosse, WI

Home | Current Version | Previous Version | Text Only | Print | Product List | Glossary On
Versions: 1 2 3 4 5 6 7 8 9 10 11 12 13 14 15 16 17 18
000
FTUS43 KARX 210620 AAA
TAFLSE
TAF AMD
KLSE 210620Z 2106/2206 VRB03KT 3SM BR SCT005
      TEMPO 2106/2110 1/2SM FG BKN004
     FM211500 05004KT P6SM SCT100
     FM220100 03006KT 5SM -DZ OVC015=

USA.gov is the U.S. government's official web portal to all federal, state and local government web resources and services.